Current Weather

Half Moon Bay

Half Moon Bay, California (KHAF)

Report from: Saturday, November 26, 2022 11:55 PM PST
Current time: Sunday, November 27, 2022 12:24 AM PST

Nearby weather
Weather history
Weather forecast

Temperature7.0°C (44.6°F)
Wind chill6.2°C (43.1°F)
Dew point4.0°C (39.2°F)
Winds 3 kts (1.5 m/s, 3.5 mph) Northeast (50°)
Visibility9 mi. (14.5 km)
Clouds Few clouds 200 ft. (61 m)
Altimeter30.12 in.Hg (1020 mB)
Relative humidity81 %
Density altitude-1,072 ft. (-327 m)
Remarks Fully automated report
Automated weather observing station with precipitation discriminator
Flight conditions Visual Meteorological Conditions
Raw dataKHAF 270755Z AUTO 05003KT 9SM FEW002 07/04 A3012 RMK AO2
An error has occurred. This application may no longer respond until reloaded. Reload 🗙